Time;durP1;ratioP1;P1;durP2;ratioP2;P2;SDS_P1;SDS_P2;PMS_P1;PMS_P2;Temp;Humidity;BMP_temperature;BMP_pressure;BME280_temperature;BME280_humidity;BME280_pressure;Samples;Min_cycle;Max_cycle;Signal;HPM_P1;HPM_P2
2023/04/19 00:01:19;;;;;;;14.13;9.45;;;;;;;;;;5058377;28;20037;-78
2023/04/19 00:03:45;;;;;;;12.32;8.38;;;;;;;;;;5058807;28;20267;-77
2023/04/19 00:06:14;;;;;;;13.88;9.07;;;;;;;;;;5058786;28;20531;-78
2023/04/19 00:08:41;;;;;;;11.23;8.82;;;;;;;;;;5060816;28;20061;-77
2023/04/19 00:11:07;;;;;;;12.55;8.93;;;;;;;;;;5055533;28;20045;-77
2023/04/19 00:13:33;;;;;;;12.20;8.20;;;;;;;;;;5057854;28;20051;-78
2023/04/19 00:15:59;;;;;;;12.45;8.23;;;;;;;;;;5059070;28;20068;-77
2023/04/19 00:18:26;;;;;;;13.38;8.55;;;;;;;;;;5058708;28;20045;-77
2023/04/19 00:20:52;;;;;;;13.20;8.30;;;;;;;;;;5054973;28;20045;-76
2023/04/19 00:23:18;;;;;;;12.90;8.55;;;;;;;;;;5058208;28;20041;-77
2023/04/19 00:25:48;;;;;;;11.60;8.35;;;;;;;;;;5051760;28;20085;-77
2023/04/19 00:28:14;;;;;;;12.13;8.05;;;;;;;;;;5058707;28;20029;-77
2023/04/19 00:30:40;;;;;;;12.00;8.55;;;;;;;;;;5058343;28;20394;-76
2023/04/19 00:33:11;;;;;;;12.90;8.27;;;;;;;;;;5058877;28;20100;-77
2023/04/19 00:35:37;;;;;;;12.88;8.20;;;;;;;;;;5059497;28;20047;-78
2023/04/19 00:38:03;;;;;;;11.38;7.90;;;;;;;;;;5057165;28;20064;-78
2023/04/19 00:40:31;;;;;;;12.45;8.40;;;;;;;;;;5058018;28;20094;-78
2023/04/19 00:42:57;;;;;;;13.98;8.90;;;;;;;;;;5056067;28;20045;-77
2023/04/19 00:45:23;;;;;;;12.05;8.32;;;;;;;;;;5058750;28;20041;-77
2023/04/19 00:47:49;;;;;;;14.27;8.32;;;;;;;;;;5058207;28;20041;-77
2023/04/19 00:50:15;;;;;;;12.02;8.27;;;;;;;;;;5058887;28;20041;-77
2023/04/19 00:52:41;;;;;;;10.73;8.45;;;;;;;;;;5057916;28;20041;-77
2023/04/19 00:55:07;;;;;;;13.30;8.02;;;;;;;;;;5052771;28;20459;-77
2023/04/19 00:57:33;;;;;;;13.85;8.13;;;;;;;;;;5056600;28;20487;-78
2023/04/19 00:59:59;;;;;;;13.38;7.80;;;;;;;;;;5060134;28;20056;-77
2023/04/19 01:02:27;;;;;;;14.13;8.73;;;;;;;;;;5058724;28;20119;-77
2023/04/19 01:04:53;;;;;;;12.55;8.65;;;;;;;;;;5058029;28;20422;-78
2023/04/19 01:07:19;;;;;;;12.88;8.48;;;;;;;;;;5060218;28;20048;-77
2023/04/19 01:09:46;;;;;;;12.57;7.60;;;;;;;;;;5039787;28;20054;-77
2023/04/19 01:12:12;;;;;;;11.43;8.23;;;;;;;;;;5057975;28;20171;-77
2023/04/19 01:14:38;;;;;;;15.77;8.43;;;;;;;;;;5059935;28;20053;-77
2023/04/19 01:17:04;;;;;;;13.32;9.00;;;;;;;;;;5061045;28;20045;-78
2023/04/19 01:19:30;;;;;;;14.40;9.18;;;;;;;;;;5060996;28;20120;-78
2023/04/19 01:21:57;;;;;;;15.40;8.90;;;;;;;;;;5061390;28;20049;-78
2023/04/19 01:24:23;;;;;;;13.10;8.55;;;;;;;;;;5063091;28;20045;-77
2023/04/19 01:26:49;;;;;;;13.40;8.13;;;;;;;;;;5057702;28;20049;-77
2023/04/19 01:29:16;;;;;;;12.63;8.57;;;;;;;;;;5056592;28;20080;-77
2023/04/19 01:31:42;;;;;;;13.40;8.20;;;;;;;;;;5057589;28;20049;-76
2023/04/19 01:34:08;;;;;;;11.90;8.57;;;;;;;;;;5056737;28;20041;-77
2023/04/19 01:36:34;;;;;;;12.20;8.32;;;;;;;;;;5056691;28;20491;-77
2023/04/19 01:39:01;;;;;;;12.95;8.77;;;;;;;;;;5057036;28;20380;-77
2023/04/19 01:41:28;;;;;;;12.35;8.13;;;;;;;;;;5056518;28;20055;-77
2023/04/19 01:43:54;;;;;;;15.13;9.70;;;;;;;;;;5054563;28;20037;-77
2023/04/19 01:46:20;;;;;;;14.25;9.13;;;;;;;;;;5055662;28;20491;-78
2023/04/19 01:48:46;;;;;;;12.10;9.57;;;;;;;;;;5055347;28;20044;-77
2023/04/19 01:51:12;;;;;;;14.18;9.65;;;;;;;;;;5055567;28;20044;-77
2023/04/19 01:53:39;;;;;;;14.88;9.63;;;;;;;;;;5056014;28;20503;-76
2023/04/19 01:56:05;;;;;;;13.43;9.35;;;;;;;;;;5060321;28;20041;-78
2023/04/19 01:58:31;;;;;;;17.33;10.10;;;;;;;;;;5059417;28;20044;-77
2023/04/19 02:00:57;;;;;;;14.70;10.40;;;;;;;;;;5058152;28;20508;-77
2023/04/19 02:03:23;;;;;;;15.88;9.80;;;;;;;;;;5059446;28;20414;-76
2023/04/19 02:05:49;;;;;;;14.55;10.05;;;;;;;;;;5059201;28;20132;-76
2023/04/19 02:08:15;;;;;;;14.80;11.13;;;;;;;;;;5058230;28;20528;-78
2023/04/19 02:10:41;;;;;;;20.13;11.27;;;;;;;;;;5057971;28;20057;-78
2023/04/19 02:13:07;;;;;;;13.85;10.80;;;;;;;;;;5060700;28;20045;-77
2023/04/19 02:15:33;;;;;;;15.43;10.32;;;;;;;;;;5068460;28;20118;-78
2023/04/19 02:17:59;;;;;;;15.95;11.18;;;;;;;;;;5066461;28;20041;-77
2023/04/19 02:20:25;;;;;;;16.98;10.23;;;;;;;;;;5059802;28;20057;-77
2023/04/19 02:22:51;;;;;;;17.58;11.30;;;;;;;;;;5059680;28;20099;-78
2023/04/19 02:25:18;;;;;;;15.57;10.90;;;;;;;;;;5059173;28;20044;-76
2023/04/19 02:27:44;;;;;;;16.02;11.57;;;;;;;;;;5060987;28;20045;-77
2023/04/19 02:30:10;;;;;;;17.25;11.02;;;;;;;;;;5059518;28;20037;-78
2023/04/19 02:32:36;;;;;;;17.48;11.10;;;;;;;;;;5060896;28;20055;-77
2023/04/19 02:35:03;;;;;;;15.10;10.38;;;;;;;;;;5060345;28;20037;-77
2023/04/19 02:37:29;;;;;;;17.42;11.57;;;;;;;;;;5061211;28;20105;-78
2023/04/19 02:39:55;;;;;;;17.52;11.18;;;;;;;;;;5064633;28;20045;-78
2023/04/19 02:42:21;;;;;;;16.70;11.35;;;;;;;;;;5059520;28;20155;-77
2023/04/19 02:44:47;;;;;;;15.10;10.85;;;;;;;;;;5060265;28;20049;-77
2023/04/19 02:47:13;;;;;;;15.40;9.73;;;;;;;;;;5058223;28;20041;-78
2023/04/19 02:49:40;;;;;;;17.30;10.68;;;;;;;;;;5058868;28;20104;-77
2023/04/19 02:52:07;;;;;;;16.30;11.57;;;;;;;;;;5059748;28;20049;-77
2023/04/19 02:54:33;;;;;;;16.58;10.88;;;;;;;;;;5061396;28;20044;-77
2023/04/19 02:56:59;;;;;;;15.77;9.70;;;;;;;;;;5059493;28;20045;-77
2023/04/19 02:59:26;;;;;;;17.70;10.25;;;;;;;;;;5060782;28;20060;-77
2023/04/19 03:01:52;;;;;;;16.02;10.38;;;;;;;;;;5059898;28;20041;-77
2023/04/19 03:04:18;;;;;;;14.77;9.52;;;;;;;;;;5060453;28;20045;-77
2023/04/19 03:06:44;;;;;;;14.77;9.40;;;;;;;;;;5059420;28;20051;-76
2023/04/19 03:09:10;;;;;;;14.65;9.48;;;;;;;;;;5059541;28;20126;-78
2023/04/19 03:11:37;;;;;;;18.00;9.75;;;;;;;;;;5059808;28;20043;-77
2023/04/19 03:14:03;;;;;;;13.80;8.85;;;;;;;;;;5061089;28;20049;-77
2023/04/19 03:16:29;;;;;;;15.88;9.52;;;;;;;;;;5060947;28;20510;-77
2023/04/19 03:18:55;;;;;;;14.52;8.95;;;;;;;;;;5059842;28;20049;-77
2023/04/19 03:21:25;;;;;;;14.52;8.52;;;;;;;;;;5059217;28;20041;-77
2023/04/19 03:23:52;;;;;;;16.85;8.90;;;;;;;;;;5059564;28;20509;-77
2023/04/19 03:26:18;;;;;;;15.00;8.50;;;;;;;;;;5060494;28;20090;-77
2023/04/19 03:28:44;;;;;;;14.20;8.48;;;;;;;;;;5059243;28;20056;-77
2023/04/19 03:31:10;;;;;;;12.32;7.60;;;;;;;;;;5059308;28;20143;-77
2023/04/19 03:33:36;;;;;;;12.73;8.18;;;;;;;;;;5058556;28;20052;-77
2023/04/19 03:36:02;;;;;;;11.27;7.97;;;;;;;;;;5059997;28;20045;-79
2023/04/19 03:38:28;;;;;;;13.77;8.13;;;;;;;;;;5057180;28;20049;-77
2023/04/19 03:40:56;;;;;;;12.73;8.77;;;;;;;;;;5057150;28;20407;-77
2023/04/19 03:43:23;;;;;;;14.10;8.73;;;;;;;;;;5058355;28;20041;-78
2023/04/19 03:45:49;;;;;;;13.75;8.38;;;;;;;;;;5056993;28;20494;-77
2023/04/19 03:48:15;;;;;;;16.58;9.38;;;;;;;;;;5057473;28;20041;-77
2023/04/19 03:50:41;;;;;;;14.20;9.50;;;;;;;;;;5055428;28;20048;-77
2023/04/19 03:53:07;;;;;;;15.65;10.43;;;;;;;;;;5055269;28;20045;-77
2023/04/19 03:55:33;;;;;;;16.45;10.00;;;;;;;;;;5057578;28;20048;-77
2023/04/19 03:58:00;;;;;;;16.73;10.23;;;;;;;;;;5059409;28;20483;-77
2023/04/19 04:00:26;;;;;;;15.98;10.35;;;;;;;;;;5058416;28;20102;-77
2023/04/19 04:02:52;;;;;;;17.00;10.68;;;;;;;;;;5057426;28;20509;-77
2023/04/19 04:05:18;;;;;;;16.73;9.85;;;;;;;;;;5055685;28;20120;-77
2023/04/19 04:07:44;;;;;;;16.52;10.05;;;;;;;;;;5058499;28;20045;-76
2023/04/19 04:10:10;;;;;;;14.73;10.52;;;;;;;;;;5057100;28;20518;-77
2023/04/19 04:12:36;;;;;;;15.15;9.95;;;;;;;;;;5055324;28;20045;-77
2023/04/19 04:15:03;;;;;;;16.10;10.25;;;;;;;;;;5054478;28;20044;-78
2023/04/19 04:17:29;;;;;;;13.60;9.02;;;;;;;;;;5054171;28;20044;-77
2023/04/19 04:19:56;;;;;;;15.43;10.38;;;;;;;;;;5054279;28;20041;-77
2023/04/19 04:22:22;;;;;;;17.13;10.20;;;;;;;;;;5056419;28;20087;-77
2023/04/19 04:24:48;;;;;;;15.95;10.07;;;;;;;;;;5056102;28;20080;-76
2023/04/19 04:27:19;;;;;;;15.50;10.63;;;;;;;;;;5054747;28;20045;-77
2023/04/19 04:29:45;;;;;;;13.60;9.60;;;;;;;;;;5053467;28;21926;-77
2023/04/19 04:32:13;;;;;;;17.30;10.05;;;;;;;;;;5053477;28;20488;-77
2023/04/19 04:34:40;;;;;;;15.07;9.52;;;;;;;;;;5054180;28;20514;-77
2023/04/19 04:37:07;;;;;;;17.58;9.43;;;;;;;;;;5053427;28;20086;-78
2023/04/19 04:39:37;;;;;;;16.17;9.38;;;;;;;;;;5056079;28;20055;-77
2023/04/19 04:42:07;;;;;;;12.00;7.75;;;;;;;;;;5070930;28;20155;-77
2023/04/19 04:44:33;;;;;;;17.35;9.23;;;;;;;;;;5066060;28;20040;-77
2023/04/19 04:46:59;;;;;;;16.90;8.07;;;;;;;;;;5055384;28;20387;-77
2023/04/19 04:49:25;;;;;;;16.08;8.27;;;;;;;;;;5054407;28;20044;-77
2023/04/19 04:51:51;;;;;;;14.35;7.38;;;;;;;;;;5053044;28;20045;-77
2023/04/19 04:54:17;;;;;;;12.07;8.48;;;;;;;;;;5055988;28;20040;-77
2023/04/19 04:56:44;;;;;;;13.35;8.48;;;;;;;;;;5055739;28;20067;-77
2023/04/19 04:59:10;;;;;;;13.30;7.82;;;;;;;;;;5055836;28;20048;-78
2023/04/19 05:01:36;;;;;;;16.38;8.57;;;;;;;;;;5055451;28;20037;-77
2023/04/19 05:04:02;;;;;;;15.85;8.80;;;;;;;;;;5055060;28;20059;-77
2023/04/19 05:06:28;;;;;;;13.45;7.80;;;;;;;;;;5055630;28;20055;-77
2023/04/19 05:08:54;;;;;;;14.18;7.97;;;;;;;;;;5054904;28;20079;-77
2023/04/19 05:11:20;;;;;;;13.93;7.90;;;;;;;;;;5054809;28;20045;-77
2023/04/19 05:13:46;;;;;;;15.18;7.78;;;;;;;;;;5056233;28;20090;-78
2023/04/19 05:16:12;;;;;;;15.25;8.10;;;;;;;;;;5055276;28;20060;-77
2023/04/19 05:18:38;;;;;;;12.90;7.97;;;;;;;;;;5055025;28;20045;-77
2023/04/19 05:21:07;;;;;;;11.85;7.45;;;;;;;;;;5055447;28;20043;-79
2023/04/19 05:23:33;;;;;;;12.07;7.88;;;;;;;;;;5055525;28;20052;-77
2023/04/19 05:25:59;;;;;;;12.32;7.25;;;;;;;;;;5054556;28;20049;-77
2023/04/19 05:28:25;;;;;;;9.60;6.82;;;;;;;;;;5055551;28;20045;-78
2023/04/19 05:30:51;;;;;;;10.38;6.72;;;;;;;;;;5059464;28;20533;-78
2023/04/19 05:33:17;;;;;;;11.40;7.00;;;;;;;;;;5057877;28;20068;-78
2023/04/19 05:35:43;;;;;;;11.50;7.10;;;;;;;;;;5058928;28;20557;-78
2023/04/19 05:38:09;;;;;;;21.70;11.48;;;;;;;;;;5059899;28;20041;-77
2023/04/19 05:40:35;;;;;;;19.23;11.68;;;;;;;;;;5061869;28;20907;-77
2023/04/19 05:43:01;;;;;;;10.40;6.10;;;;;;;;;;5060896;28;20056;-77
2023/04/19 05:45:27;;;;;;;10.43;5.85;;;;;;;;;;5061010;28;20045;-78
2023/04/19 05:47:53;;;;;;;9.55;5.35;;;;;;;;;;5064078;28;20117;-78
2023/04/19 05:50:20;;;;;;;11.00;5.20;;;;;;;;;;5063195;28;20451;-78
2023/04/19 05:52:46;;;;;;;7.68;5.22;;;;;;;;;;5060290;28;20048;-77
2023/04/19 05:55:12;;;;;;;7.78;4.50;;;;;;;;;;5060647;28;20131;-78
2023/04/19 05:57:38;;;;;;;7.45;4.30;;;;;;;;;;5063063;28;20072;-78
2023/04/19 06:00:04;;;;;;;8.85;5.30;;;;;;;;;;5063269;28;20044;-77
2023/04/19 06:02:31;;;;;;;9.20;5.10;;;;;;;;;;5059814;28;20044;-79
2023/04/19 06:04:57;;;;;;;10.25;4.63;;;;;;;;;;5060691;28;20072;-78
2023/04/19 06:07:23;;;;;;;9.70;5.03;;;;;;;;;;5062305;28;20174;-78
2023/04/19 06:09:49;;;;;;;8.77;4.95;;;;;;;;;;5060104;28;20044;-79
2023/04/19 06:12:15;;;;;;;7.72;4.38;;;;;;;;;;5060729;28;20044;-78
2023/04/19 06:14:41;;;;;;;9.18;4.30;;;;;;;;;;5059429;28;20123;-77
2023/04/19 06:17:07;;;;;;;9.13;4.75;;;;;;;;;;5060983;28;20074;-77
2023/04/19 06:19:33;;;;;;;7.85;4.28;;;;;;;;;;5059746;28;20152;-78
2023/04/19 06:22:00;;;;;;;9.30;4.32;;;;;;;;;;5061400;28;20045;-76
2023/04/19 06:24:26;;;;;;;9.25;3.90;;;;;;;;;;5061683;28;20036;-77
2023/04/19 06:26:52;;;;;;;10.15;4.35;;;;;;;;;;5060341;28;20040;-78
2023/04/19 06:29:22;;;;;;;9.68;4.05;;;;;;;;;;5062342;28;20467;-78
2023/04/19 06:31:48;;;;;;;7.93;4.07;;;;;;;;;;5060238;28;20044;-79
2023/04/19 06:34:15;;;;;;;7.32;4.18;;;;;;;;;;5057313;28;20041;-79
2023/04/19 06:36:41;;;;;;;10.18;4.00;;;;;;;;;;5057350;28;20082;-77
2023/04/19 06:39:07;;;;;;;7.18;3.83;;;;;;;;;;5059721;28;20091;-78
2023/04/19 06:41:33;;;;;;;7.78;4.15;;;;;;;;;;5059194;28;20037;-77
2023/04/19 06:43:59;;;;;;;10.43;4.15;;;;;;;;;;5058770;28;20079;-78
2023/04/19 06:46:26;;;;;;;10.18;4.30;;;;;;;;;;5060551;28;20605;-78
2023/04/19 06:48:52;;;;;;;8.05;4.00;;;;;;;;;;5059330;28;20049;-79
2023/04/19 06:51:18;;;;;;;7.35;3.47;;;;;;;;;;5058950;28;20526;-77
2023/04/19 06:53:44;;;;;;;6.88;3.40;;;;;;;;;;5057811;28;20040;-78
2023/04/19 06:56:11;;;;;;;12.68;6.38;;;;;;;;;;5059040;28;20045;-78
2023/04/19 06:58:37;;;;;;;12.15;5.63;;;;;;;;;;5059294;28;20049;-78
2023/04/19 07:01:04;;;;;;;9.23;4.97;;;;;;;;;;5058041;28;20047;-77
2023/04/19 07:03:30;;;;;;;9.00;4.80;;;;;;;;;;5059698;28;20123;-77
2023/04/19 07:05:56;;;;;;;10.38;4.18;;;;;;;;;;5063918;28;20053;-76
2023/04/19 07:08:26;;;;;;;8.18;3.63;;;;;;;;;;5060377;28;20503;-78
2023/04/19 07:10:52;;;;;;;6.53;3.53;;;;;;;;;;5061105;28;20499;-78
2023/04/19 07:13:18;;;;;;;7.80;3.08;;;;;;;;;;5060908;28;20065;-78
2023/04/19 07:15:45;;;;;;;8.32;3.72;;;;;;;;;;5057564;28;20132;-76
2023/04/19 07:18:13;;;;;;;8.68;3.17;;;;;;;;;;5058588;28;20045;-78
2023/04/19 07:20:43;;;;;;;6.47;3.10;;;;;;;;;;5055382;28;20115;-78
2023/04/19 07:23:10;;;;;;;5.80;2.95;;;;;;;;;;5058015;28;20452;-78
2023/04/19 07:25:36;;;;;;;7.35;3.20;;;;;;;;;;5057485;28;20056;-78
2023/04/19 07:28:02;;;;;;;8.15;3.10;;;;;;;;;;5039956;28;20045;-77
2023/04/19 07:30:28;;;;;;;5.75;2.70;;;;;;;;;;5057272;28;20498;-78
2023/04/19 07:32:54;;;;;;;9.35;3.03;;;;;;;;;;5057804;28;20403;-77
2023/04/19 07:35:20;;;;;;;6.03;2.70;;;;;;;;;;5057135;28;20115;-78
2023/04/19 07:37:47;;;;;;;9.07;3.20;;;;;;;;;;5058443;28;20133;-77
2023/04/19 07:40:13;;;;;;;7.18;3.20;;;;;;;;;;5051337;28;20045;-77
2023/04/19 07:42:39;;;;;;;7.07;2.80;;;;;;;;;;5056016;28;20052;-77
2023/04/19 07:45:05;;;;;;;7.43;3.20;;;;;;;;;;5054054;28;20128;-77
2023/04/19 07:47:32;;;;;;;8.35;3.20;;;;;;;;;;5054041;28;20048;-76
2023/04/19 07:49:58;;;;;;;6.10;3.00;;;;;;;;;;5057181;28;20372;-78
2023/04/19 07:52:24;;;;;;;6.45;3.20;;;;;;;;;;5055153;28;20049;-77
2023/04/19 07:54:50;;;;;;;13.15;3.40;;;;;;;;;;5057715;28;20434;-78
2023/04/19 07:57:16;;;;;;;7.28;3.38;;;;;;;;;;5058026;28;20056;-77
2023/04/19 07:59:42;;;;;;;9.35;3.45;;;;;;;;;;5054436;28;20045;-77
2023/04/19 08:02:08;;;;;;;7.43;3.30;;;;;;;;;;5057538;28;20045;-76
2023/04/19 08:04:35;;;;;;;7.45;3.38;;;;;;;;;;5058241;28;20041;-77
2023/04/19 08:07:03;;;;;;;6.15;3.10;;;;;;;;;;5056729;28;20490;-76
2023/04/19 08:09:29;;;;;;;9.52;3.28;;;;;;;;;;5056294;28;20053;-76
2023/04/19 08:11:56;;;;;;;6.85;3.00;;;;;;;;;;5057811;28;20076;-76
2023/04/19 08:14:22;;;;;;;7.25;2.90;;;;;;;;;;5057053;28;20048;-77
2023/04/19 08:16:48;;;;;;;7.28;2.85;;;;;;;;;;5051245;28;20099;-77
2023/04/19 08:19:14;;;;;;;8.98;3.03;;;;;;;;;;5051432;28;20045;-77
2023/04/19 08:21:40;;;;;;;7.30;3.22;;;;;;;;;;5056567;28;20128;-76
2023/04/19 08:24:06;;;;;;;9.23;3.05;;;;;;;;;;5056240;28;20041;-77
2023/04/19 08:26:32;;;;;;;7.47;2.80;;;;;;;;;;5055972;28;20048;-77
2023/04/19 08:28:59;;;;;;;5.18;2.63;;;;;;;;;;5054300;28;20045;-77
2023/04/19 08:31:25;;;;;;;6.53;2.60;;;;;;;;;;5056847;28;20083;-77
2023/04/19 08:33:51;;;;;;;8.85;2.45;;;;;;;;;;5054500;28;20045;-76
2023/04/19 08:36:17;;;;;;;7.03;2.10;;;;;;;;;;5055844;28;20040;-77
2023/04/19 08:38:43;;;;;;;7.15;2.25;;;;;;;;;;5055967;28;20097;-77
2023/04/19 08:41:11;;;;;;;6.10;2.25;;;;;;;;;;5055983;28;20052;-77
2023/04/19 08:43:38;;;;;;;5.40;2.22;;;;;;;;;;5056242;28;20048;-77
2023/04/19 08:46:04;;;;;;;8.80;2.53;;;;;;;;;;5056374;28;20049;-77
2023/04/19 08:48:35;;;;;;;8.02;2.42;;;;;;;;;;5057109;28;20045;-78
2023/04/19 08:51:01;;;;;;;6.05;2.30;;;;;;;;;;5051044;28;20044;-77
2023/04/19 08:53:29;;;;;;;8.32;2.88;;;;;;;;;;5052129;28;20052;-77
2023/04/19 08:55:57;;;;;;;5.70;2.17;;;;;;;;;;5055315;28;20068;-77
2023/04/19 08:58:24;;;;;;;6.53;2.30;;;;;;;;;;5053597;28;20076;-77
2023/04/19 09:00:51;;;;;;;7.88;1.90;;;;;;;;;;5056413;28;20052;-77
2023/04/19 09:03:17;;;;;;;5.20;2.25;;;;;;;;;;5056336;28;20509;-77
2023/04/19 09:05:43;;;;;;;7.35;2.17;;;;;;;;;;5060426;28;20419;-76
2023/04/19 09:08:28;;;;;;;6.53;2.38;;;;;;;;;;5060235;28;20056;-78
2023/04/19 09:10:56;;;;;;;6.57;2.33;;;;;;;;;;5059396;28;20447;-77
2023/04/19 09:13:22;;;;;;;9.15;2.60;;;;;;;;;;5061995;28;20045;-78
2023/04/19 09:15:48;;;;;;;5.18;2.20;;;;;;;;;;5059743;28;20048;-76
2023/04/19 09:18:15;;;;;;;6.47;2.20;;;;;;;;;;5058560;28;20072;-77
2023/04/19 09:20:42;;;;;;;5.60;2.20;;;;;;;;;;5058499;28;20150;-76
2023/04/19 09:23:11;;;;;;;5.78;2.22;;;;;;;;;;5059406;28;20052;-77
2023/04/19 09:25:37;;;;;;;6.22;2.20;;;;;;;;;;5049599;28;20045;-78
2023/04/19 09:28:13;;;;;;;4.82;2.20;;;;;;;;;;5040180;28;20094;-77
2023/04/19 09:30:39;;;;;;;7.25;2.20;;;;;;;;;;5039497;28;20499;-76
2023/04/19 09:33:06;;;;;;;6.25;2.10;;;;;;;;;;5061624;28;20128;-77
2023/04/19 09:35:40;;;;;;;6.68;2.10;;;;;;;;;;5059663;28;20057;-76
2023/04/19 09:38:06;;;;;;;6.05;2.13;;;;;;;;;;5060350;28;20083;-76
2023/04/19 09:40:32;;;;;;;5.10;2.20;;;;;;;;;;5061090;28;20045;-77
2023/04/19 09:42:58;;;;;;;7.57;2.28;;;;;;;;;;5059369;28;20481;-78
2023/04/19 09:45:24;;;;;;;6.35;2.20;;;;;;;;;;5059801;28;20102;-76
2023/04/19 09:48:01;;;;;;;5.80;1.95;;;;;;;;;;5060257;28;20051;-77
2023/04/19 09:50:27;;;;;;;5.10;1.70;;;;;;;;;;5057840;28;20552;-77
2023/04/19 09:52:53;;;;;;;5.05;1.80;;;;;;;;;;5059935;28;20044;-76
2023/04/19 09:55:20;;;;;;;4.75;1.50;;;;;;;;;;5059162;28;20048;-76
2023/04/19 09:57:46;;;;;;;6.25;1.92;;;;;;;;;;5059094;28;20123;-77
2023/04/19 10:00:14;;;;;;;5.68;2.00;;;;;;;;;;5058009;28;20438;-77
2023/04/19 10:02:40;;;;;;;4.10;1.90;;;;;;;;;;5056295;28;20144;-76
2023/04/19 10:05:08;;;;;;;7.32;2.17;;;;;;;;;;5053956;28;20049;-76
2023/04/19 10:07:35;;;;;;;5.05;2.38;;;;;;;;;;5053531;28;20122;-76
2023/04/19 10:10:02;;;;;;;4.40;1.92;;;;;;;;;;5055500;28;20114;-77
2023/04/19 10:12:30;;;;;;;3.67;1.80;;;;;;;;;;5055069;28;20113;-77
2023/04/19 10:14:56;;;;;;;8.52;2.08;;;;;;;;;;5057548;28;20044;-76
2023/04/19 10:17:23;;;;;;;4.38;1.67;;;;;;;;;;5048394;28;20049;-76
2023/04/19 10:19:52;;;;;;;5.75;2.05;;;;;;;;;;5058944;28;20041;-77
2023/04/19 10:22:19;;;;;;;6.25;2.03;;;;;;;;;;5058270;28;20052;-76
2023/04/19 10:25:06;;;;;;;5.05;1.80;;;;;;;;;;5055733;28;20090;-77
2023/04/19 10:27:34;;;;;;;4.90;2.05;;;;;;;;;;5060024;28;20131;-76
2023/04/19 10:30:02;;;;;;;6.35;1.95;;;;;;;;;;5046012;28;20190;-76
2023/04/19 10:32:29;;;;;;;5.22;2.00;;;;;;;;;;5057320;28;20118;-75
2023/04/19 10:35:03;;;;;;;7.82;1.92;;;;;;;;;;5061417;28;20041;-75
2023/04/19 10:37:31;;;;;;;5.28;1.90;;;;;;;;;;5061347;28;20045;-76
2023/04/19 10:39:57;;;;;;;5.55;1.90;;;;;;;;;;5059823;28;20430;-75
2023/04/19 10:42:23;;;;;;;5.38;1.80;;;;;;;;;;5060689;28;20117;-75
2023/04/19 10:45:08;;;;;;;5.95;1.70;;;;;;;;;;5043093;28;20057;-75
2023/04/19 10:47:46;;;;;;;5.13;2.25;;;;;;;;;;5053894;28;20036;-76
2023/04/19 10:50:12;;;;;;;3.90;1.80;;;;;;;;;;5055481;28;20044;-78
2023/04/19 10:52:38;;;;;;;6.30;1.65;;;;;;;;;;5056404;28;20094;-76
2023/04/19 10:55:05;;;;;;;4.60;1.90;;;;;;;;;;5057874;28;20071;-76
2023/04/19 10:57:51;;;;;;;5.60;1.80;;;;;;;;;;5055742;28;20103;-76
2023/04/19 11:00:20;;;;;;;5.43;1.95;;;;;;;;;;5060599;28;20041;-76
2023/04/19 11:02:46;;;;;;;5.68;2.35;;;;;;;;;;5058203;28;20051;-77
2023/04/19 11:05:13;;;;;;;5.57;2.22;;;;;;;;;;5054500;28;20502;-77
2023/04/19 11:07:40;;;;;;;6.55;2.40;;;;;;;;;;5056410;28;20059;-75
2023/04/19 11:10:06;;;;;;;7.50;2.33;;;;;;;;;;5059130;28;20052;-76
2023/04/19 11:12:33;;;;;;;8.77;2.20;;;;;;;;;;5060810;28;20132;-76
2023/04/19 11:15:00;;;;;;;5.70;2.45;;;;;;;;;;5058028;28;20080;-76
2023/04/19 11:17:29;;;;;;;4.30;2.15;;;;;;;;;;5056853;28;20049;-77
2023/04/19 11:19:56;;;;;;;7.78;2.00;;;;;;;;;;5054736;28;20036;-76
2023/04/19 11:22:31;;;;;;;8.65;2.30;;;;;;;;;;5053570;28;20048;-76
2023/04/19 11:25:11;;;;;;;4.40;1.88;;;;;;;;;;5057667;28;21072;-77
2023/04/19 11:27:38;;;;;;;6.68;2.70;;;;;;;;;;5053204;28;20454;-75
2023/04/19 11:30:08;;;;;;;4.68;1.95;;;;;;;;;;5049692;28;20080;-76
2023/04/19 11:32:35;;;;;;;4.93;2.47;;;;;;;;;;5048062;28;20049;-76
2023/04/19 11:35:06;;;;;;;4.78;1.98;;;;;;;;;;5056862;28;20040;-76
2023/04/19 11:37:33;;;;;;;6.00;2.47;;;;;;;;;;5056449;28;20049;-76
2023/04/19 11:39:59;;;;;;;6.65;2.55;;;;;;;;;;5055909;28;20083;-76
2023/04/19 11:42:25;;;;;;;4.55;2.38;;;;;;;;;;5041249;28;20056;-75
2023/04/19 11:44:52;;;;;;;6.13;2.50;;;;;;;;;;5047764;28;20380;-76
2023/04/19 11:47:21;;;;;;;5.18;2.78;;;;;;;;;;5050657;28;20041;-77
2023/04/19 11:49:47;;;;;;;5.38;2.47;;;;;;;;;;5055875;28;20509;-76
2023/04/19 11:52:19;;;;;;;6.30;2.88;;;;;;;;;;5053070;28;20051;-75
2023/04/19 11:54:45;;;;;;;6.57;2.92;;;;;;;;;;5064599;28;20491;-76
2023/04/19 11:57:11;;;;;;;5.65;3.00;;;;;;;;;;5053989;28;20098;-76
2023/04/19 11:59:38;;;;;;;7.10;2.90;;;;;;;;;;5056346;28;20056;-76
2023/04/19 12:02:06;;;;;;;5.93;2.58;;;;;;;;;;5060228;28;20064;-76
2023/04/19 12:04:32;;;;;;;9.50;3.30;;;;;;;;;;5057040;28;20068;-75
2023/04/19 12:06:59;;;;;;;6.75;3.45;;;;;;;;;;5067193;28;20040;-77
2023/04/19 12:09:25;;;;;;;6.40;3.67;;;;;;;;;;5049627;28;20390;-76
2023/04/19 12:11:51;;;;;;;8.48;3.08;;;;;;;;;;5053377;28;20045;-76
2023/04/19 12:14:21;;;;;;;5.90;2.92;;;;;;;;;;5057557;28;20065;-77
2023/04/19 12:17:23;;;;;;;8.20;3.75;;;;;;;;;;5056239;28;20098;-76
2023/04/19 12:19:49;;;;;;;7.10;2.83;;;;;;;;;;5048134;28;21669;-76
2023/04/19 12:22:16;;;;;;;5.22;2.65;;;;;;;;;;5031588;28;20064;-76
2023/04/19 12:24:42;;;;;;;6.25;3.55;;;;;;;;;;5035116;28;20116;-76
2023/04/19 12:27:09;;;;;;;7.10;3.28;;;;;;;;;;5042731;28;20501;-76
2023/04/19 12:29:35;;;;;;;11.20;3.28;;;;;;;;;;5036849;28;20075;-77
2023/04/19 12:32:01;;;;;;;5.30;2.63;;;;;;;;;;5053616;28;20045;-77
2023/04/19 12:34:27;;;;;;;8.45;3.10;;;;;;;;;;5041550;28;20538;-77
2023/04/19 12:36:54;;;;;;;5.43;3.00;;;;;;;;;;5054445;28;20087;-76
2023/04/19 12:39:20;;;;;;;7.55;3.25;;;;;;;;;;5061477;28;20560;-77
2023/04/19 12:41:48;;;;;;;6.00;2.75;;;;;;;;;;5051103;28;20222;-77
2023/04/19 12:44:15;;;;;;;6.22;3.15;;;;;;;;;;5050996;28;20516;-76
2023/04/19 12:46:41;;;;;;;7.05;3.30;;;;;;;;;;5049082;28;20072;-77
2023/04/19 12:49:07;;;;;;;5.97;3.10;;;;;;;;;;5047056;28;20041;-76
2023/04/19 12:51:35;;;;;;;11.77;3.60;;;;;;;;;;5033410;28;20037;-77
2023/04/19 12:54:01;;;;;;;7.90;3.30;;;;;;;;;;5042353;28;20075;-77
2023/04/19 12:56:27;;;;;;;4.25;2.35;;;;;;;;;;5056591;28;20491;-77
2023/04/19 12:58:53;;;;;;;5.93;2.95;;;;;;;;;;5071474;28;20060;-77
2023/04/19 13:01:19;;;;;;;5.65;2.60;;;;;;;;;;5057326;28;20049;-76
2023/04/19 13:03:45;;;;;;;7.07;2.88;;;;;;;;;;5054454;28;20495;-77
2023/04/19 13:06:14;;;;;;;7.03;2.95;;;;;;;;;;5058453;28;20045;-77
2023/04/19 13:08:40;;;;;;;8.00;3.05;;;;;;;;;;5050455;28;20065;-77
2023/04/19 13:11:06;;;;;;;7.75;2.92;;;;;;;;;;5054906;28;20120;-77
2023/04/19 13:13:34;;;;;;;6.57;2.88;;;;;;;;;;5051425;28;20499;-77
2023/04/19 13:16:00;;;;;;;5.30;3.05;;;;;;;;;;5054699;28;20048;-77
2023/04/19 13:18:26;;;;;;;6.65;2.30;;;;;;;;;;5052108;28;20450;-77
2023/04/19 13:20:52;;;;;;;7.00;2.00;;;;;;;;;;5049572;28;20076;-77
2023/04/19 13:23:19;;;;;;;8.15;2.70;;;;;;;;;;5054833;28;20071;-75
2023/04/19 13:25:45;;;;;;;6.82;2.45;;;;;;;;;;5056277;28;20049;-76
2023/04/19 13:28:11;;;;;;;7.43;2.83;;;;;;;;;;5055406;28;20064;-77
2023/04/19 13:30:37;;;;;;;6.75;2.85;;;;;;;;;;5055421;28;20037;-77
2023/04/19 13:33:03;;;;;;;7.30;2.95;;;;;;;;;;5052888;28;20051;-77
2023/04/19 13:35:29;;;;;;;9.65;3.83;;;;;;;;;;5055310;28;20491;-75
2023/04/19 13:37:56;;;;;;;6.15;2.90;;;;;;;;;;5060401;28;20124;-76
2023/04/19 13:40:22;;;;;;;8.30;3.13;;;;;;;;;;5050309;28;20403;-76
2023/04/19 13:42:48;;;;;;;5.63;2.67;;;;;;;;;;5045133;28;20449;-78
2023/04/19 13:45:14;;;;;;;4.82;2.40;;;;;;;;;;5069315;28;20047;-76
2023/04/19 13:47:40;;;;;;;6.75;3.00;;;;;;;;;;5067408;28;20095;-77
2023/04/19 13:50:06;;;;;;;7.47;3.40;;;;;;;;;;5054075;28;20499;-77
2023/04/19 13:52:32;;;;;;;6.70;2.80;;;;;;;;;;5057143;28;20087;-77
2023/04/19 13:54:58;;;;;;;4.05;2.15;;;;;;;;;;5064596;28;20049;-77
2023/04/19 13:57:24;;;;;;;8.77;3.90;;;;;;;;;;5057901;28;20502;-77
2023/04/19 13:59:50;;;;;;;6.45;2.63;;;;;;;;;;5056786;28;20139;-76
2023/04/19 14:02:17;;;;;;;4.80;2.33;;;;;;;;;;5054822;28;20048;-76
2023/04/19 14:04:43;;;;;;;7.80;2.75;;;;;;;;;;5043025;28;20044;-77
2023/04/19 14:07:09;;;;;;;8.68;2.65;;;;;;;;;;5048749;28;20443;-78
2023/04/19 14:09:35;;;;;;;4.57;2.53;;;;;;;;;;5052823;28;20068;-78
2023/04/19 14:12:03;;;;;;;5.22;2.63;;;;;;;;;;5057211;28;20052;-78
2023/04/19 14:14:29;;;;;;;6.20;2.78;;;;;;;;;;5053546;28;20037;-77
2023/04/19 14:16:55;;;;;;;5.90;2.70;;;;;;;;;;5053361;28;20045;-76
2023/04/19 14:19:22;;;;;;;5.20;2.80;;;;;;;;;;5047793;28;20048;-76
2023/04/19 14:21:48;;;;;;;6.43;2.60;;;;;;;;;;5058001;28;20048;-77
2023/04/19 14:24:14;;;;;;;5.75;3.00;;;;;;;;;;5056206;28;20657;-78
2023/04/19 14:26:40;;;;;;;6.82;2.35;;;;;;;;;;5058804;28;20075;-77
2023/04/19 14:29:06;;;;;;;5.20;2.58;;;;;;;;;;5061430;28;20037;-78
2023/04/19 14:31:33;;;;;;;6.15;2.45;;;;;;;;;;5040535;28;20081;-75
2023/04/19 14:33:59;;;;;;;5.13;2.05;;;;;;;;;;5058795;28;20052;-76